Time;durP1;ratioP1;P1;durP2;ratioP2;P2;SDS_P1;SDS_P2;PMS_P1;PMS_P2;Temp;Humidity;BMP_temperature;BMP_pressure;BME280_temperature;BME280_humidity;BME280_pressure;Samples;Min_cycle;Max_cycle;Signal;HPM_P1;HPM_P2
2022/04/07 00:00:20;;;;;;;27.77;23.38;;;;;;;5.79;100.00;97416.00;2066918;28;20216;-75
2022/04/07 00:01:22;;;;;;;31.65;23.52;;;;;;;5.79;100.00;97426.59;2066514;28;20695;-75
2022/04/07 00:02:23;;;;;;;27.80;23.83;;;;;;;5.79;100.00;97423.94;2066465;28;20200;-75
2022/04/07 00:03:25;;;;;;;33.63;24.35;;;;;;;5.75;100.00;97407.91;2066348;28;20205;-76
2022/04/07 00:04:26;;;;;;;30.90;23.60;;;;;;;5.75;100.00;97418.47;2058391;28;20260;-75
2022/04/07 00:05:28;;;;;;;28.50;22.93;;;;;;;5.76;100.00;97413.97;2066369;28;20189;-75
2022/04/07 00:06:29;;;;;;;26.17;23.38;;;;;;;5.79;100.00;97416.00;2066775;28;20306;-75
2022/04/07 00:07:31;;;;;;;32.72;23.70;;;;;;;5.82;100.00;97421.47;2066242;28;20212;-75
2022/04/07 00:08:32;;;;;;;26.13;23.13;;;;;;;5.85;100.00;97412.91;2066512;28;20200;-75
2022/04/07 00:09:35;;;;;;;29.92;22.70;;;;;;;5.90;100.00;97409.34;2066826;28;20548;-75
2022/04/07 00:10:36;;;;;;;29.58;23.50;;;;;;;5.94;100.00;97413.75;2066885;28;20193;-76
2022/04/07 00:11:41;;;;;;;29.50;23.90;;;;;;;5.95;100.00;97410.03;2066109;28;20219;-75
2022/04/07 00:12:42;;;;;;;29.73;24.17;;;;;;;5.96;100.00;97408.16;2058664;28;20210;-75
2022/04/07 00:13:44;;;;;;;31.15;23.67;;;;;;;6.01;100.00;97410.69;2066244;28;20236;-75
2022/04/07 00:14:45;;;;;;;33.38;23.00;;;;;;;6.01;100.00;97413.31;2066792;28;20196;-75
2022/04/07 00:15:53;;;;;;;30.33;23.43;;;;;;;6.02;100.00;97406.94;2066891;28;20276;-75
2022/04/07 00:16:54;;;;;;;31.88;23.58;;;;;;;6.04;100.00;97404.75;2066906;28;20220;-75
2022/04/07 00:17:57;;;;;;;28.53;22.77;;;;;;;6.05;100.00;97401.03;2066113;28;20193;-75
2022/04/07 00:19:00;;;;;;;30.77;23.80;;;;;;;6.11;100.00;97405.09;2066625;28;20201;-75
2022/04/07 00:20:02;;;;;;;28.38;23.70;;;;;;;6.12;100.00;97397.94;2066009;28;20197;-75
2022/04/07 00:21:11;;;;;;;29.45;22.67;;;;;;;6.10;100.00;97392.19;2057637;28;20208;-75
2022/04/07 00:22:14;;;;;;;28.83;23.38;;;;;;;6.10;100.00;97392.94;2066478;28;20257;-75
2022/04/07 00:23:16;;;;;;;31.25;23.60;;;;;;;6.13;100.00;97383.59;2066058;28;20343;-75
2022/04/07 00:24:18;;;;;;;27.37;23.60;;;;;;;6.15;100.00;97390.16;2058035;28;20197;-75
2022/04/07 00:25:19;;;;;;;29.13;23.38;;;;;;;6.15;100.00;97384.84;2058000;28;20230;-75
2022/04/07 00:26:22;;;;;;;31.65;24.27;;;;;;;6.14;100.00;97385.16;2057417;28;20635;-75
2022/04/07 00:27:24;;;;;;;28.17;22.80;;;;;;;6.17;100.00;97380.03;2066354;28;20196;-75
2022/04/07 00:28:26;;;;;;;32.30;24.27;;;;;;;6.16;100.00;97375.03;2074139;28;20687;-75
2022/04/07 00:29:27;;;;;;;29.60;23.63;;;;;;;6.16;100.00;97378.47;2065690;28;20228;-75
2022/04/07 00:30:30;;;;;;;33.72;24.42;;;;;;;6.16;100.00;97378.47;2066123;28;20212;-76
2022/04/07 00:31:39;;;;;;;26.27;23.48;;;;;;;6.19;100.00;97380.50;2066737;28;20192;-75
2022/04/07 00:32:44;;;;;;;29.00;23.80;;;;;;;6.18;100.00;97378.97;2066824;28;20181;-75
2022/04/07 00:33:48;;;;;;;30.52;23.75;;;;;;;6.17;100.00;97377.41;2066742;28;20260;-75
2022/04/07 00:34:54;;;;;;;27.75;22.83;;;;;;;6.15;100.00;97373.47;2065565;28;20205;-75
2022/04/07 00:35:55;;;;;;;26.65;22.88;;;;;;;6.12;100.00;97374.09;2065850;28;20263;-76
2022/04/07 00:36:58;;;;;;;35.78;24.10;;;;;;;6.14;100.00;97377.22;2066758;28;20240;-75
2022/04/07 00:37:59;;;;;;;29.95;23.42;;;;;;;6.17;100.00;97374.75;2065119;28;20205;-75
2022/04/07 00:39:01;;;;;;;28.75;22.77;;;;;;;6.17;100.00;97380.03;2065940;28;20260;-76
2022/04/07 00:40:04;;;;;;;30.90;24.10;;;;;;;6.19;100.00;97369.91;2065847;28;20201;-75
2022/04/07 00:41:05;;;;;;;29.80;22.55;;;;;;;6.22;100.00;97381.75;2057873;28;20206;-75
2022/04/07 00:42:07;;;;;;;30.60;23.13;;;;;;;6.27;100.00;97383.50;2066232;28;20654;-75
2022/04/07 00:43:28;;;;;;;26.77;22.48;;;;;;;6.28;100.00;97382.41;2066819;28;20191;-75
2022/04/07 00:44:30;;;;;;;25.63;22.58;;;;;;;6.31;100.00;97387.06;2066647;28;20181;-76
2022/04/07 00:45:31;;;;;;;27.67;23.15;;;;;;;6.29;100.00;97376.00;2066936;28;20256;-75
2022/04/07 00:46:33;;;;;;;30.60;23.93;;;;;;;6.32;100.00;97383.31;2065273;28;20205;-75
2022/04/07 00:47:34;;;;;;;29.83;23.38;;;;;;;6.35;100.00;97382.72;2057957;28;20201;-75
2022/04/07 00:48:36;;;;;;;29.93;23.80;;;;;;;6.35;100.00;97375.56;2066010;28;20225;-75
2022/04/07 00:49:37;;;;;;;28.75;23.60;;;;;;;6.37;100.00;97376.03;2066614;28;20197;-75
2022/04/07 00:50:40;;;;;;;25.47;22.60;;;;;;;6.41;100.00;97373.53;2066872;28;20712;-75
2022/04/07 00:51:43;;;;;;;28.20;22.52;;;;;;;6.41;100.00;97366.34;2065648;28;20358;-75
2022/04/07 00:52:46;;;;;;;29.13;23.92;;;;;;;6.44;100.00;97370.28;2066127;28;20224;-75
2022/04/07 00:53:46;;;;;;;27.55;23.45;;;;;;;6.47;100.00;97369.66;2073609;28;20226;-75
2022/04/07 00:54:49;;;;;;;28.33;23.43;;;;;;;6.48;100.00;97365.91;2065864;28;20284;-75
2022/04/07 00:55:50;;;;;;;28.45;23.67;;;;;;;6.48;100.00;97363.25;2058028;28;20205;-75
2022/04/07 00:56:54;;;;;;;31.60;24.30;;;;;;;6.50;100.00;97369.78;2065820;28;20200;-75
2022/04/07 00:57:55;;;;;;;30.70;24.33;;;;;;;6.52;100.00;97366.84;2073806;28;20599;-75
2022/04/07 00:58:58;;;;;;;28.73;23.80;;;;;;;6.54;100.00;97358.59;2072628;28;20671;-75
2022/04/07 00:59:59;;;;;;;28.25;23.13;;;;;;;6.56;100.00;97362.47;2074076;28;20735;-75
2022/04/07 01:01:01;;;;;;;28.40;22.53;;;;;;;6.56;100.00;97361.72;2066475;28;20600;-76
2022/04/07 01:02:06;;;;;;;25.55;22.70;;;;;;;6.60;100.00;97358.09;2066465;28;20204;-75
2022/04/07 01:03:09;;;;;;;29.08;23.73;;;;;;;6.68;100.00;97354.69;2073962;28;20606;-75
2022/04/07 01:04:10;;;;;;;31.33;23.52;;;;;;;6.80;100.00;97349.56;2073945;28;20196;-75
2022/04/07 01:05:12;;;;;;;26.25;23.45;;;;;;;6.95;100.00;97352.78;2074199;28;20207;-75
2022/04/07 01:06:13;;;;;;;26.70;23.75;;;;;;;6.90;100.00;97350.31;2073526;28;20278;-75
2022/04/07 01:07:15;;;;;;;28.07;22.77;;;;;;;6.88;100.00;97353.28;2073924;28;20188;-74
2022/04/07 01:08:16;;;;;;;30.58;22.75;;;;;;;6.84;100.00;97344.38;2065773;28;20696;-75
2022/04/07 01:09:19;;;;;;;28.45;23.10;;;;;;;6.83;100.00;97350.00;2057805;28;20747;-75
2022/04/07 01:10:20;;;;;;;25.58;22.85;;;;;;;7.03;100.00;97341.41;2065913;28;20208;-75
2022/04/07 01:11:23;;;;;;;26.83;24.00;;;;;;;7.01;100.00;97335.63;2073950;28;20180;-75
2022/04/07 01:12:24;;;;;;;25.38;22.80;;;;;;;7.01;100.00;97341.72;2066596;28;20651;-75
2022/04/07 01:13:48;;;;;;;28.43;23.03;;;;;;;6.88;100.00;97342.69;2065453;28;20650;-75
2022/04/07 01:14:59;;;;;;;26.92;22.38;;;;;;;6.83;100.00;97339.41;2066260;28;20950;-75
2022/04/07 01:16:01;;;;;;;29.88;23.20;;;;;;;6.78;100.00;97345.66;2065829;28;20218;-75
2022/04/07 01:17:04;;;;;;;26.73;22.90;;;;;;;6.75;100.00;97338.31;2065988;28;20247;-75
2022/04/07 01:18:07;;;;;;;26.25;22.23;;;;;;;6.71;100.00;97348.78;2065669;28;20200;-75
2022/04/07 01:19:10;;;;;;;29.33;22.92;;;;;;;6.69;100.00;97345.66;2058061;28;20202;-75
2022/04/07 01:20:11;;;;;;;29.10;23.67;;;;;;;6.68;100.00;97343.31;2057750;28;20198;-75
2022/04/07 01:21:15;;;;;;;24.77;22.13;;;;;;;6.66;100.00;97342.84;2065166;28;20229;-75
2022/04/07 01:22:16;;;;;;;25.50;22.67;;;;;;;6.66;100.00;97340.19;2066552;28;20579;-74
2022/04/07 01:23:17;;;;;;;24.50;21.92;;;;;;;6.68;100.00;97351.25;2066414;28;20192;-75
2022/04/07 01:24:26;;;;;;;24.02;21.52;;;;;;;6.68;100.00;97348.59;2066416;28;20721;-75
2022/04/07 01:25:28;;;;;;;24.48;21.98;;;;;;;6.69;100.00;97335.06;2065060;28;20653;-75
2022/04/07 01:26:34;;;;;;;23.20;20.77;;;;;;;6.70;100.00;97336.63;2065831;28;20340;-75
2022/04/07 01:27:35;;;;;;;23.27;20.85;;;;;;;6.74;100.00;97331.47;2073977;28;20331;-75
2022/04/07 01:28:36;;;;;;;25.05;22.35;;;;;;;6.75;100.00;97339.09;2073765;28;20230;-75
2022/04/07 01:29:38;;;;;;;24.63;21.40;;;;;;;6.75;100.00;97333.78;2066275;28;20243;-75
2022/04/07 01:30:39;;;;;;;25.85;22.35;;;;;;;6.74;100.00;97332.25;2066342;28;20195;-75
2022/04/07 01:31:43;;;;;;;27.37;21.70;;;;;;;6.75;100.00;97327.72;2065469;28;20259;-75
2022/04/07 01:32:46;;;;;;;23.95;21.40;;;;;;;6.75;100.00;97322.41;2065607;28;20189;-75
2022/04/07 01:33:48;;;;;;;24.77;22.38;;;;;;;6.74;100.00;97323.50;2066483;28;20644;-74
2022/04/07 01:34:49;;;;;;;25.08;22.50;;;;;;;6.70;100.00;97318.06;2066250;28;20193;-75
2022/04/07 01:35:51;;;;;;;24.37;21.73;;;;;;;6.77;100.00;97315.69;2065606;28;20296;-75
2022/04/07 01:36:54;;;;;;;25.70;23.02;;;;;;;6.73;100.00;97319.31;2065204;28;20221;-75
2022/04/07 01:37:57;;;;;;;24.77;22.38;;;;;;;6.69;100.00;97318.34;2065425;28;20193;-75
2022/04/07 01:39:00;;;;;;;23.88;21.55;;;;;;;6.67;100.00;97316.03;2057634;28;20202;-75
2022/04/07 01:40:06;;;;;;;24.27;21.83;;;;;;;6.62;100.00;97316.19;2065627;28;20193;-75
2022/04/07 01:41:08;;;;;;;25.08;22.58;;;;;;;6.62;100.00;97313.56;2066449;28;20219;-75
2022/04/07 01:42:11;;;;;;;24.47;21.70;;;;;;;6.63;100.00;97317.75;2066210;28;20197;-75
2022/04/07 01:43:11;;;;;;;23.90;21.40;;;;;;;6.57;100.00;97316.34;2065812;28;20196;-75
2022/04/07 01:44:14;;;;;;;23.83;21.43;;;;;;;6.59;100.00;97319.47;2066152;28;20193;-75
2022/04/07 01:45:14;;;;;;;24.20;21.67;;;;;;;6.60;100.00;97315.72;2065411;28;20551;-75
2022/04/07 01:46:20;;;;;;;26.60;22.07;;;;;;;6.62;100.00;97305.59;2057439;28;20209;-75
2022/04/07 01:47:23;;;;;;;24.02;21.73;;;;;;;6.63;100.00;97304.50;2065813;28;20220;-75
2022/04/07 01:48:24;;;;;;;25.33;21.95;;;;;;;6.66;100.00;97314.47;2066333;28;20771;-75
2022/04/07 01:49:26;;;;;;;25.23;21.30;;;;;;;6.67;100.00;97313.38;2066081;28;20615;-74
2022/04/07 01:50:29;;;;;;;24.10;21.70;;;;;;;6.70;100.00;97317.28;2066151;28;20565;-75
2022/04/07 01:51:31;;;;;;;23.65;21.30;;;;;;;6.68;100.00;97312.28;2065794;28;20244;-75
2022/04/07 01:52:35;;;;;;;24.55;21.27;;;;;;;6.75;100.00;97325.06;2065019;28;20698;-75
2022/04/07 01:53:38;;;;;;;23.50;21.23;;;;;;;6.83;100.00;97324.28;2065460;28;20711;-75
2022/04/07 01:54:42;;;;;;;25.40;21.95;;;;;;;6.93;100.00;97328.47;2065007;28;20209;-75
2022/04/07 01:55:47;;;;;;;23.08;20.60;;;;;;;6.99;100.00;97325.34;2065593;28;20185;-75
2022/04/07 01:56:49;;;;;;;45.70;25.00;;;;;;;7.16;100.00;97334.38;2066121;28;20173;-75
2022/04/07 01:57:53;;;;;;;37.78;24.05;;;;;;;7.36;100.00;97336.34;2064726;28;20205;-75
2022/04/07 01:58:56;;;;;;;32.55;24.58;;;;;;;7.45;100.00;97338.97;2065498;28;20193;-75
2022/04/07 02:00:01;;;;;;;28.83;23.27;;;;;;;7.54;100.00;97342.38;2065354;28;20686;-74
2022/04/07 02:01:03;;;;;;;35.17;25.17;;;;;;;7.45;100.00;97349.56;2065524;28;20691;-75
2022/04/07 02:02:04;;;;;;;34.95;25.23;;;;;;;7.46;100.00;97354.56;2065974;28;20682;-75
2022/04/07 02:03:06;;;;;;;33.45;25.65;;;;;;;7.40;100.00;97345.25;2065258;28;20656;-75
2022/04/07 02:04:07;;;;;;;30.17;25.85;;;;;;;7.34;100.00;97349.91;2065419;28;20188;-74
2022/04/07 02:05:11;;;;;;;31.30;25.73;;;;;;;7.33;100.00;97347.59;2066070;28;20199;-75
2022/04/07 02:06:13;;;;;;;29.15;25.20;;;;;;;7.28;100.00;97348.53;2072988;28;20736;-74
2022/04/07 02:07:16;;;;;;;33.55;25.10;;;;;;;7.25;100.00;97348.38;2073691;28;20181;-74
2022/04/07 02:08:18;;;;;;;30.33;24.45;;;;;;;7.19;100.00;97347.78;2065986;28;20243;-75
2022/04/07 02:09:20;;;;;;;29.40;24.63;;;;;;;7.19;100.00;97345.13;2065197;28;20663;-75
2022/04/07 02:10:23;;;;;;;32.20;24.65;;;;;;;7.17;100.00;97339.34;2065523;28;20203;-75
2022/04/07 02:11:28;;;;;;;31.52;25.13;;;;;;;7.11;100.00;97337.97;2065970;28;20684;-75
2022/04/07 02:12:30;;;;;;;28.83;25.63;;;;;;;7.06;100.00;97338.13;2073397;28;20196;-75
2022/04/07 02:13:32;;;;;;;29.63;24.50;;;;;;;7.02;100.00;97337.19;2065199;28;20213;-75
2022/04/07 02:14:34;;;;;;;30.45;25.58;;;;;;;6.99;100.00;97335.19;2057413;28;20197;-75
2022/04/07 02:15:37;;;;;;;32.05;25.40;;;;;;;7.04;100.00;97329.72;2057422;28;20248;-75
2022/04/07 02:16:37;;;;;;;33.00;24.75;;;;;;;7.03;100.00;97342.19;2065086;28;20292;-75
2022/04/07 02:17:41;;;;;;;32.47;25.73;;;;;;;7.06;100.00;97338.91;2065927;28;20193;-76
2022/04/07 02:18:43;;;;;;;34.53;24.80;;;;;;;7.08;100.00;97338.59;2065948;28;20193;-75
2022/04/07 02:19:46;;;;;;;31.63;24.98;;;;;;;7.09;100.00;97334.84;2065976;28;20189;-75
2022/04/07 02:20:49;;;;;;;27.48;24.65;;;;;;;7.11;100.00;97342.47;2065897;28;20201;-75
2022/04/07 02:21:52;;;;;;;25.73;22.98;;;;;;;7.19;100.00;97344.34;2064818;28;20244;-75
2022/04/07 02:22:52;;;;;;;50.38;27.25;;;;;;;7.29;100.00;97351.94;2057372;28;20714;-75
2022/04/07 02:23:54;;;;;;;46.30;27.37;;;;;;;7.32;100.00;97352.13;2065324;28;20552;-75
2022/04/07 02:24:56;;;;;;;34.88;24.30;;;;;;;7.35;100.00;97350.69;2065023;28;20204;-75
2022/04/07 02:25:58;;;;;;;33.58;24.55;;;;;;;7.35;100.00;97346.16;2065548;28;20197;-75
2022/04/07 02:27:00;;;;;;;33.50;24.98;;;;;;;7.37;100.00;97351.94;2073011;28;20196;-75
2022/04/07 02:28:02;;;;;;;31.77;24.83;;;;;;;7.41;100.00;97353.97;2065325;28;20192;-75
2022/04/07 02:29:05;;;;;;;30.90;25.05;;;;;;;7.37;100.00;97343.97;2065285;28;20197;-75
2022/04/07 02:30:09;;;;;;;35.42;25.70;;;;;;;7.41;100.00;97348.66;2065831;28;20189;-75
2022/04/07 02:31:11;;;;;;;30.38;25.92;;;;;;;7.45;100.00;97344.28;2065193;28;20238;-75
2022/04/07 02:32:13;;;;;;;33.60;26.52;;;;;;;7.42;100.00;97348.34;2065512;28;20217;-75
2022/04/07 02:33:16;;;;;;;32.38;25.73;;;;;;;7.43;100.00;97352.56;2065804;28;20200;-75
2022/04/07 02:34:17;;;;;;;33.63;27.05;;;;;;;7.40;100.00;97358.50;2065818;28;20243;-75
2022/04/07 02:35:19;;;;;;;36.80;27.45;;;;;;;7.37;100.00;97359.91;2065147;28;20208;-75
2022/04/07 02:36:22;;;;;;;35.38;27.27;;;;;;;7.33;100.00;97355.56;2064766;28;20220;-75
2022/04/07 02:37:25;;;;;;;31.17;24.95;;;;;;;7.27;100.00;97352.28;2065138;28;20690;-75
2022/04/07 02:38:26;;;;;;;36.03;25.45;;;;;;;7.30;100.00;97354.31;2065370;28;20251;-75
2022/04/07 02:39:27;;;;;;;39.83;26.20;;;;;;;7.30;100.00;97353.53;2065102;28;20208;-75
2022/04/07 02:40:29;;;;;;;33.22;26.35;;;;;;;7.28;100.00;97348.53;2057169;28;20197;-75
2022/04/07 02:41:31;;;;;;;32.33;25.80;;;;;;;7.28;100.00;97351.19;2065288;28;20263;-75
2022/04/07 02:42:39;;;;;;;27.98;24.98;;;;;;;7.24;100.00;97344.97;2064793;28;20204;-75
2022/04/07 02:43:40;;;;;;;32.25;25.60;;;;;;;7.24;100.00;97342.31;2065639;28;20232;-76
2022/04/07 02:44:42;;;;;;;30.27;25.58;;;;;;;7.24;100.00;97342.31;2065129;28;20197;-75
2022/04/07 02:45:43;;;;;;;36.97;26.77;;;;;;;7.21;100.00;97339.50;2056762;28;20249;-74
2022/04/07 02:46:45;;;;;;;33.37;25.47;;;;;;;7.20;100.00;97337.94;2057163;28;20205;-74
2022/04/07 02:47:46;;;;;;;34.58;25.50;;;;;;;7.19;100.00;97342.47;2065251;28;20656;-74
2022/04/07 02:48:49;;;;;;;35.77;26.13;;;;;;;7.18;100.00;97340.13;2073447;28;20645;-74
2022/04/07 02:49:50;;;;;;;34.63;25.52;;;;;;;7.14;100.00;97340.00;2073196;28;20224;-74
2022/04/07 02:50:52;;;;;;;28.98;25.15;;;;;;;7.11;100.00;97339.84;2065790;28;20197;-74
2022/04/07 02:51:53;;;;;;;32.95;25.83;;;;;;;7.08;100.00;97346.56;2065394;28;20564;-74
2022/04/07 02:52:54;;;;;;;30.37;25.50;;;;;;;7.10;100.00;97344.34;2064834;28;20339;-75
2022/04/07 02:53:58;;;;;;;33.30;25.30;;;;;;;7.05;100.00;97337.34;2057099;28;20310;-75
2022/04/07 02:55:00;;;;;;;32.65;23.08;;;;;;;7.08;100.00;97341.25;2066059;28;20200;-75
2022/04/07 02:56:02;;;;;;;31.73;24.17;;;;;;;7.06;100.00;97336.25;2067714;28;20197;-75
2022/04/07 02:57:05;;;;;;;28.50;24.65;;;;;;;7.09;100.00;97342.81;2067418;28;20215;-74
2022/04/07 02:58:07;;;;;;;30.27;25.10;;;;;;;7.13;100.00;97337.66;2067473;28;20205;-75
2022/04/07 02:59:09;;;;;;;28.08;24.58;;;;;;;7.12;100.00;97339.50;2074885;28;20670;-75
2022/04/07 03:00:11;;;;;;;32.10;25.17;;;;;;;7.05;100.00;97340.00;2066442;28;20205;-75
2022/04/07 03:01:14;;;;;;;29.85;24.33;;;;;;;7.02;100.00;97334.53;2066764;28;20643;-75
2022/04/07 03:02:15;;;;;;;31.45;24.48;;;;;;;6.97;100.00;97337.38;2058463;28;20240;-75
2022/04/07 03:03:19;;;;;;;27.43;24.27;;;;;;;6.95;100.00;97340.34;2066894;28;20192;-75
2022/04/07 03:04:21;;;;;;;28.70;24.27;;;;;;;6.96;100.00;97339.25;2066727;28;20205;-74
2022/04/07 03:05:23;;;;;;;31.55;24.35;;;;;;;6.96;100.00;97339.25;2058792;28;20292;-75
2022/04/07 03:06:25;;;;;;;30.13;25.40;;;;;;;6.94;100.00;97341.41;2066367;28;20224;-75
2022/04/07 03:07:27;;;;;;;28.25;24.98;;;;;;;6.90;100.00;97335.19;2066680;28;20211;-75
2022/04/07 03:08:29;;;;;;;28.42;24.52;;;;;;;6.87;100.00;97340.34;2066854;28;20231;-75
2022/04/07 03:09:31;;;;;;;32.20;25.65;;;;;;;6.89;100.00;97340.81;2066753;28;20607;-75
2022/04/07 03:10:32;;;;;;;30.02;24.83;;;;;;;6.84;100.00;97343.63;2066498;28;20625;-75
2022/04/07 03:11:34;;;;;;;28.80;24.98;;;;;;;6.79;100.00;97339.25;2074812;28;20192;-75
2022/04/07 03:12:38;;;;;;;26.98;24.13;;;;;;;6.75;100.00;97344.41;2074763;28;20737;-75
2022/04/07 03:13:43;;;;;;;30.93;24.83;;;;;;;6.75;100.00;97344.41;2074933;28;20622;-75
2022/04/07 03:14:44;;;;;;;27.55;24.73;;;;;;;6.75;100.00;97344.41;2067471;28;20224;-75
2022/04/07 03:15:46;;;;;;;28.70;24.70;;;;;;;6.79;100.00;97340.03;2066688;28;20193;-75
2022/04/07 03:16:48;;;;;;;28.17;24.50;;;;;;;6.80;100.00;97341.59;2066967;28;20671;-75
2022/04/07 03:17:50;;;;;;;30.50;24.67;;;;;;;6.84;100.00;97346.25;2067425;28;20606;-74
2022/04/07 03:18:51;;;;;;;28.83;24.00;;;;;;;6.83;100.00;97344.72;2067373;28;20201;-75
2022/04/07 03:19:53;;;;;;;28.27;23.57;;;;;;;6.85;100.00;97342.50;2066105;28;20299;-75
2022/04/07 03:20:54;;;;;;;26.83;24.05;;;;;;;6.84;100.00;97348.91;2057963;28;20613;-74
2022/04/07 03:21:58;;;;;;;31.38;23.77;;;;;;;6.87;100.00;97356.25;2066572;28;20292;-75
2022/04/07 03:22:58;;;;;;;29.67;24.60;;;;;;;6.90;100.00;97347.66;2066166;28;20204;-75
2022/04/07 03:24:00;;;;;;;29.50;24.13;;;;;;;6.95;100.00;97358.09;2058482;28;20284;-75
2022/04/07 03:25:02;;;;;;;27.75;24.73;;;;;;;6.93;100.00;97355.75;2058154;28;20683;-75
2022/04/07 03:26:04;;;;;;;30.80;24.88;;;;;;;6.98;100.00;97349.53;2066325;28;20173;-74
2022/04/07 03:27:06;;;;;;;27.23;24.33;;;;;;;7.01;100.00;97346.25;2066709;28;20219;-75
2022/04/07 03:28:11;;;;;;;30.33;24.55;;;;;;;7.03;100.00;97346.69;2065741;28;20219;-74
2022/04/07 03:29:13;;;;;;;28.80;24.90;;;;;;;7.01;100.00;97343.59;2066406;28;20209;-75
2022/04/07 03:30:15;;;;;;;28.27;24.40;;;;;;;7.04;100.00;97350.94;2066010;28;20228;-75
2022/04/07 03:31:17;;;;;;;28.85;24.42;;;;;;;7.02;100.00;97350.44;2057920;28;20205;-75
2022/04/07 03:32:20;;;;;;;30.17;23.80;;;;;;;7.00;100.00;97348.13;2058198;28;20261;-75
2022/04/07 03:33:20;;;;;;;27.48;24.08;;;;;;;7.03;100.00;97352.00;2066031;28;20664;-75
2022/04/07 03:34:22;;;;;;;28.43;25.23;;;;;;;7.04;100.00;97346.41;2065814;28;20606;-76
2022/04/07 03:35:23;;;;;;;31.25;24.52;;;;;;;7.01;100.00;97341.72;2057872;28;20256;-75
2022/04/07 03:36:25;;;;;;;25.67;23.10;;;;;;;7.00;100.00;97350.78;2057662;28;20224;-75
2022/04/07 03:37:27;;;;;;;31.25;23.13;;;;;;;7.00;100.00;97348.13;2066188;28;20769;-75
2022/04/07 03:38:30;;;;;;;29.00;24.27;;;;;;;6.98;100.00;97346.88;2065858;28;20201;-75
2022/04/07 03:39:33;;;;;;;28.05;24.23;;;;;;;6.97;100.00;97350.63;2066002;28;20300;-75
2022/04/07 03:40:35;;;;;;;28.65;24.15;;;;;;;6.95;100.00;97345.66;2065826;28;20205;-75
2022/04/07 03:41:36;;;;;;;28.13;24.35;;;;;;;6.97;100.00;97340.03;2066019;28;20706;-75
2022/04/07 03:42:38;;;;;;;27.85;24.65;;;;;;;6.96;100.00;97339.25;2065776;28;20216;-75
2022/04/07 03:43:40;;;;;;;29.77;24.90;;;;;;;6.96;100.00;97333.16;2066146;28;20224;-75
2022/04/07 03:44:42;;;;;;;30.08;24.95;;;;;;;6.92;100.00;97333.00;2065924;28;20547;-75
2022/04/07 03:45:43;;;;;;;29.52;24.27;;;;;;;6.93;100.00;97328.47;2066049;28;20271;-75
2022/04/07 03:46:44;;;;;;;28.90;25.10;;;;;;;6.91;100.00;97333.31;2066605;28;20189;-75
2022/04/07 03:47:46;;;;;;;29.83;24.75;;;;;;;6.95;100.00;97334.22;2066679;28;20227;-75
2022/04/07 03:48:48;;;;;;;29.23;24.38;;;;;;;6.99;100.00;97337.84;2065174;28;20224;-74
2022/04/07 03:49:50;;;;;;;34.60;25.35;;;;;;;7.00;100.00;97336.72;2057989;28;20552;-74
2022/04/07 03:50:51;;;;;;;30.10;25.27;;;;;;;6.98;100.00;97336.28;2058224;28;20704;-74
2022/04/07 03:51:55;;;;;;;26.53;23.73;;;;;;;6.97;100.00;97327.53;2065465;28;20229;-74
2022/04/07 03:52:57;;;;;;;33.50;24.80;;;;;;;6.99;100.00;97333.31;2073564;28;20534;-74
2022/04/07 03:53:59;;;;;;;30.63;25.23;;;;;;;7.00;100.00;97331.44;2066354;28;20283;-75
2022/04/07 03:54:59;;;;;;;33.03;25.00;;;;;;;7.03;100.00;97330.78;2065390;28;20204;-74
2022/04/07 03:56:03;;;;;;;31.37;25.10;;;;;;;7.02;100.00;97331.88;2065872;28;20193;-75
2022/04/07 03:57:05;;;;;;;29.23;24.45;;;;;;;7.01;100.00;97333.75;2066427;28;20208;-76
2022/04/07 03:58:07;;;;;;;34.83;24.55;;;;;;;7.03;100.00;97328.16;2065304;28;20717;-75
2022/04/07 03:59:08;;;;;;;28.90;24.58;;;;;;;7.03;100.00;97328.16;2057903;28;20264;-75
2022/04/07 04:00:13;;;;;;;30.73;25.35;;;;;;;7.07;100.00;97331.75;2057783;28;20201;-75
2022/04/07 04:01:14;;;;;;;28.40;23.98;;;;;;;7.09;100.00;97326.88;2065913;28;20582;-75
2022/04/07 04:02:16;;;;;;;26.80;24.00;;;;;;;7.08;100.00;97320.03;2066374;28;20221;-76
2022/04/07 04:03:18;;;;;;;30.40;25.20;;;;;;;7.09;100.00;97332.97;2066402;28;20193;-75
2022/04/07 04:04:22;;;;;;;33.00;24.50;;;;;;;7.13;100.00;97333.13;2066359;28;20215;-75
2022/04/07 04:05:22;;;;;;;31.63;24.50;;;;;;;7.14;100.00;97328.63;2065133;28;20580;-76
2022/04/07 04:06:26;;;;;;;30.67;23.93;;;;;;;7.18;100.00;97332.19;2056598;28;20221;-75
2022/04/07 04:07:29;;;;;;;27.77;24.60;;;;;;;7.23;100.00;97332.03;2057945;28;20205;-75
2022/04/07 04:08:31;;;;;;;31.85;24.77;;;;;;;7.24;100.00;97328.28;2065833;28;20579;-76
2022/04/07 04:09:31;;;;;;;30.90;25.25;;;;;;;7.27;100.00;97336.34;2066511;28;20193;-75
2022/04/07 04:10:33;;;;;;;28.93;23.97;;;;;;;7.27;100.00;97331.06;2065418;28;20303;-76
2022/04/07 04:11:35;;;;;;;31.55;24.33;;;;;;;7.29;100.00;97336.03;2057790;28;20314;-75
2022/04/07 04:12:36;;;;;;;33.58;25.60;;;;;;;7.30;100.00;97337.63;2065842;28;20712;-75
2022/04/07 04:13:38;;;;;;;31.42;25.95;;;;;;;7.29;100.00;97339.47;2073856;28;20192;-76
2022/04/07 04:14:44;;;;;;;34.33;25.67;;;;;;;7.31;100.00;97337.31;2065598;28;20271;-76
2022/04/07 04:15:46;;;;;;;28.48;24.95;;;;;;;7.38;100.00;97342.09;2065843;28;20189;-75
2022/04/07 04:16:48;;;;;;;33.90;26.75;;;;;;;7.37;100.00;97336.00;2073272;28;20232;-75
2022/04/07 04:17:48;;;;;;;36.05;26.25;;;;;;;7.45;100.00;97331.00;2065590;28;20209;-75
2022/04/07 04:18:53;;;;;;;31.88;27.08;;;;;;;7.48;100.00;97333.03;2065843;28;20224;-76
2022/04/07 04:19:56;;;;;;;29.70;25.40;;;;;;;7.47;100.00;97329.63;2072965;28;20208;-75
2022/04/07 04:20:59;;;;;;;34.17;24.75;;;;;;;7.52;100.00;97334.72;2066192;28;20264;-76
2022/04/07 04:22:01;;;;;;;29.80;25.50;;;;;;;7.53;100.00;97341.59;2057628;28;20221;-75
2022/04/07 04:23:03;;;;;;;31.75;25.83;;;;;;;7.53;100.00;97333.63;2057747;28;20260;-76
2022/04/07 04:24:05;;;;;;;30.20;25.73;;;;;;;7.58;100.00;97332.69;2066066;28;20197;-75
2022/04/07 04:25:08;;;;;;;29.27;25.97;;;;;;;7.56;100.00;97333.00;1984367;28;2372258;-75
2022/04/07 04:26:10;;;;;;;29.85;25.38;;;;;;;7.51;100.00;97327.88;2066827;28;20201;-75
2022/04/07 04:27:12;;;;;;;32.30;25.90;;;;;;;7.53;100.00;97330.19;2066764;28;20196;-75
2022/04/07 04:28:13;;;;;;;30.98;24.92;;;;;;;7.52;100.00;97328.66;2065672;28;20675;-75
2022/04/07 04:29:15;;;;;;;31.52;25.05;;;;;;;7.57;100.00;97336.44;2066257;28;20193;-76
2022/04/07 04:30:18;;;;;;;29.27;25.35;;;;;;;7.58;100.00;97343.31;2066737;28;20258;-75
2022/04/07 04:31:24;;;;;;;30.58;25.48;;;;;;;7.58;100.00;97336.13;2066749;28;20216;-75
2022/04/07 04:32:26;;;;;;;32.65;24.38;;;;;;;7.62;100.00;97344.22;2065730;28;20247;-76
2022/04/07 04:33:27;;;;;;;30.88;24.77;;;;;;;7.65;100.00;97344.38;2066182;28;20189;-75
2022/04/07 04:34:28;;;;;;;27.90;24.92;;;;;;;7.65;100.00;97343.59;2066914;28;20245;-76
2022/04/07 04:35:30;;;;;;;30.87;24.90;;;;;;;7.63;100.00;97349.19;2066725;28;20224;-76
2022/04/07 04:36:33;;;;;;;27.77;24.58;;;;;;;7.64;100.00;97353.44;2064947;28;20229;-75
2022/04/07 04:37:35;;;;;;;30.23;24.67;;;;;;;7.65;100.00;97346.25;2058230;28;20680;-75
2022/04/07 04:38:37;;;;;;;30.45;24.85;;;;;;;7.66;100.00;97345.16;2066267;28;20197;-75
2022/04/07 04:39:39;;;;;;;30.60;25.42;;;;;;;7.67;100.00;97348.56;2074076;28;20270;-75
2022/04/07 04:40:41;;;;;;;31.42;25.25;;;;;;;7.69;100.00;97349.03;2065732;28;20197;-75
2022/04/07 04:41:42;;;;;;;35.72;25.98;;;;;;;7.70;100.00;97350.59;2057945;28;20689;-75
2022/04/07 04:42:46;;;;;;;29.90;25.47;;;;;;;7.73;100.00;97348.09;2066006;28;20286;-75
2022/04/07 04:43:47;;;;;;;28.90;25.60;;;;;;;7.75;100.00;97351.19;2066783;28;20594;-75
2022/04/07 04:44:49;;;;;;;31.57;25.13;;;;;;;7.78;100.00;97349.78;2066665;28;20181;-75
2022/04/07 04:45:52;;;;;;;35.33;26.20;;;;;;;7.84;100.00;97351.94;2066715;28;20192;-75
2022/04/07 04:46:56;;;;;;;28.30;24.55;;;;;;;7.87;100.00;97353.94;2066788;28;20192;-75